Time;durP1;ratioP1;P1;durP2;ratioP2;P2;SDS_P1;SDS_P2;PMS_P1;PMS_P2;Temp;Humidity;BMP_temperature;BMP_pressure;BME280_temperature;BME280_humidity;BME280_pressure;Samples;Min_cycle;Max_cycle;Signal;HPM_P1;HPM_P2
2023/04/16 00:01:32;;;;;;;;;;;11.60;99.90;;;;;;5073209;28;20482;-62
2023/04/16 00:03:58;;;;;;;;;;;11.60;99.90;;;;;;5073410;28;20397;-62
2023/04/16 00:06:23;;;;;;;;;;;11.60;99.90;;;;;;5073373;28;19985;-64
2023/04/16 00:08:50;;;;;;;;;;;11.60;99.90;;;;;;5073350;28;20485;-64
2023/04/16 00:11:16;;;;;;;;;;;11.70;99.90;;;;;;5073372;28;20072;-61
2023/04/16 00:13:41;;;;;;;;;;;11.60;99.90;;;;;;5073332;28;19986;-61
2023/04/16 00:16:07;;;;;;;;;;;11.50;99.90;;;;;;5073038;28;20054;-61
2023/04/16 00:18:33;;;;;;;;;;;11.40;99.90;;;;;;5073248;28;20056;-63
2023/04/16 00:20:58;;;;;;;;;;;11.30;99.90;;;;;;5073245;28;20163;-61
2023/04/16 00:23:24;;;;;;;;;;;11.20;99.90;;;;;;5073100;28;19989;-63
2023/04/16 00:25:50;;;;;;;;;;;11.20;99.90;;;;;;5073503;28;20028;-64
2023/04/16 00:28:15;;;;;;;;;;;11.10;99.90;;;;;;5073522;28;20462;-62
2023/04/16 00:30:41;;;;;;;;;;;11.00;99.90;;;;;;5072858;28;20351;-62
2023/04/16 00:33:06;;;;;;;;;;;11.00;99.90;;;;;;5073433;28;20011;-63
2023/04/16 00:35:32;;;;;;;;;;;11.10;99.90;;;;;;5073213;28;20025;-63
2023/04/16 00:37:57;;;;;;;;;;;11.10;99.90;;;;;;5072765;28;20025;-62
2023/04/16 00:40:26;;;;;;;;;;;11.10;99.90;;;;;;5073032;28;19985;-63
2023/04/16 00:42:51;;;;;;;;;;;11.10;99.90;;;;;;5073153;28;20390;-62
2023/04/16 00:45:17;;;;;;;;;;;11.10;99.90;;;;;;5072792;28;19996;-61
2023/04/16 00:47:42;;;;;;;;;;;11.20;99.90;;;;;;5073005;28;20024;-64
2023/04/16 00:50:09;;;;;;;;;;;11.40;99.90;;;;;;5073546;28;20147;-62
2023/04/16 00:52:34;;;;;;;;;;;11.60;99.90;;;;;;5076692;28;19985;-64
2023/04/16 00:55:00;;;;;;;;;;;11.70;99.90;;;;;;5076792;28;19996;-62
2023/04/16 00:57:26;;;;;;;;;;;11.90;99.90;;;;;;5076564;28;20076;-62
2023/04/16 00:59:53;;;;;;;;;;;12.00;99.90;;;;;;5076704;28;19989;-62
2023/04/16 01:02:18;;;;;;;;;;;12.00;99.90;;;;;;5076292;28;20111;-63
2023/04/16 01:04:44;;;;;;;;;;;12.00;99.90;;;;;;5076515;28;20076;-63
2023/04/16 01:07:10;;;;;;;;;;;12.00;99.90;;;;;;5076632;28;20004;-62
2023/04/16 01:09:35;;;;;;;;;;;12.00;99.90;;;;;;5076324;28;19986;-64
2023/04/16 01:12:01;;;;;;;;;;;12.00;99.90;;;;;;5076304;28;20034;-62
2023/04/16 01:14:26;;;;;;;;;;;11.90;99.90;;;;;;5076352;28;20055;-62
2023/04/16 01:16:52;;;;;;;;;;;11.80;99.90;;;;;;5076189;28;19985;-62
2023/04/16 01:19:17;;;;;;;;;;;11.60;99.90;;;;;;5076383;28;20002;-63
2023/04/16 01:21:43;;;;;;;;;;;11.40;99.90;;;;;;5076260;28;20053;-61
2023/04/16 01:24:08;;;;;;;;;;;11.40;99.90;;;;;;5076146;28;20451;-62
2023/04/16 01:26:34;;;;;;;;;;;11.30;99.90;;;;;;5076175;28;20040;-64
2023/04/16 01:29:00;;;;;;;;;;;11.30;99.90;;;;;;5075856;28;20451;-62
2023/04/16 01:31:25;;;;;;;;;;;11.40;99.90;;;;;;5075975;28;19986;-63
2023/04/16 01:33:51;;;;;;;;;;;11.50;99.90;;;;;;5074576;28;20043;-63
2023/04/16 01:36:16;;;;;;;;;;;11.60;99.90;;;;;;5075994;28;20052;-63
2023/04/16 01:38:42;;;;;;;;;;;11.60;99.90;;;;;;5075559;28;20048;-62
2023/04/16 01:41:07;;;;;;;;;;;11.60;99.90;;;;;;5075551;28;20528;-63
2023/04/16 01:43:33;;;;;;;;;;;11.70;99.90;;;;;;5075571;28;20014;-62
2023/04/16 01:46:19;;;;;;;;;;;11.50;99.90;;;;;;5075733;28;19989;-64
2023/04/16 01:48:45;;;;;;;;;;;11.20;99.90;;;;;;5075180;28;20435;-62
2023/04/16 01:51:10;;;;;;;;;;;11.10;99.90;;;;;;5075683;28;19992;-62
2023/04/16 01:53:36;;;;;;;;;;;10.90;99.90;;;;;;5075480;28;20021;-63
2023/04/16 01:56:01;;;;;;;;;;;10.80;99.90;;;;;;5075453;28;20053;-62
2023/04/16 01:58:28;;;;;;;;;;;10.80;99.90;;;;;;5075456;28;20011;-62
2023/04/16 02:00:54;;;;;;;;;;;10.90;99.90;;;;;;5075236;28;20047;-63
2023/04/16 02:03:20;;;;;;;;;;;11.00;99.90;;;;;;5075393;28;20542;-63
2023/04/16 02:05:46;;;;;;;;;;;11.10;99.90;;;;;;5075193;28;19990;-62
2023/04/16 02:08:11;;;;;;;;;;;11.10;99.90;;;;;;5075183;28;19985;-62
2023/04/16 02:10:37;;;;;;;;;;;11.20;99.90;;;;;;5075374;28;20077;-62
2023/04/16 02:13:02;;;;;;;;;;;11.30;99.90;;;;;;5074965;28;19992;-62
2023/04/16 02:15:28;;;;;;;;;;;11.30;99.90;;;;;;5075334;28;20046;-61
2023/04/16 02:17:55;;;;;;;;;;;11.50;99.90;;;;;;5075197;28;19990;-62
2023/04/16 02:20:21;;;;;;;;;;;11.50;99.90;;;;;;5075220;28;19993;-64
2023/04/16 02:22:46;;;;;;;;;;;11.50;99.90;;;;;;5075160;28;20020;-63
2023/04/16 02:25:13;;;;;;;;;;;11.50;99.90;;;;;;5074848;28;20474;-62
2023/04/16 02:27:38;;;;;;;;;;;11.30;99.90;;;;;;5074528;28;19985;-63
2023/04/16 02:30:04;;;;;;;;;;;11.20;99.90;;;;;;5075029;28;20397;-62
2023/04/16 02:32:30;;;;;;;;;;;11.20;99.90;;;;;;5074755;28;19992;-64
2023/04/16 02:34:58;;;;;;;;;;;11.20;99.90;;;;;;5074519;28;19989;-62
2023/04/16 02:37:24;;;;;;;;;;;11.30;99.90;;;;;;5074489;28;20025;-64
2023/04/16 02:39:50;;;;;;;;;;;11.40;99.90;;;;;;5074612;28;19986;-63
2023/04/16 02:42:16;;;;;;;;;;;11.40;99.90;;;;;;5074131;28;20063;-63
2023/04/16 02:44:41;;;;;;;;;;;11.50;99.90;;;;;;5074474;28;19989;-61
2023/04/16 02:47:07;;;;;;;;;;;11.50;99.90;;;;;;5074676;28;19989;-63
2023/04/16 02:49:32;;;;;;;;;;;11.60;99.90;;;;;;5073061;28;19989;-63
2023/04/16 02:51:58;;;;;;;;;;;11.60;99.90;;;;;;5074434;28;19992;-62
2023/04/16 02:54:23;;;;;;;;;;;11.60;99.90;;;;;;5074351;28;20080;-64
2023/04/16 02:56:49;;;;;;;;;;;11.60;99.90;;;;;;5074018;28;20017;-61
2023/04/16 02:59:14;;;;;;;;;;;11.60;99.90;;;;;;5074774;28;19990;-62
2023/04/16 03:01:40;;;;;;;;;;;11.60;99.90;;;;;;5074523;28;20509;-62
2023/04/16 03:04:05;;;;;;;;;;;11.60;99.90;;;;;;5074409;28;20462;-62
2023/04/16 03:06:31;;;;;;;;;;;11.60;99.90;;;;;;5073968;28;20454;-62
2023/04/16 03:08:57;;;;;;;;;;;11.70;99.90;;;;;;5074048;28;20393;-63
2023/04/16 03:11:22;;;;;;;;;;;11.70;99.90;;;;;;5073816;28;20558;-63
2023/04/16 03:13:48;;;;;;;;;;;11.60;99.90;;;;;;5073367;28;19985;-62
2023/04/16 03:16:14;;;;;;;;;;;11.60;99.90;;;;;;5074015;28;20016;-62
2023/04/16 03:18:39;;;;;;;;;;;11.50;99.90;;;;;;5074185;28;19989;-64
2023/04/16 03:21:05;;;;;;;;;;;11.50;99.90;;;;;;5073716;28;20009;-63
2023/04/16 03:23:30;;;;;;;;;;;11.50;99.90;;;;;;5073898;28;20349;-62
2023/04/16 03:25:56;;;;;;;;;;;11.40;99.90;;;;;;5073639;28;20402;-62
2023/04/16 03:28:22;;;;;;;;;;;11.30;99.90;;;;;;5074096;28;20032;-63
2023/04/16 03:30:52;;;;;;;;;;;11.20;99.90;;;;;;5074047;28;20374;-62
2023/04/16 03:33:18;;;;;;;;;;;11.20;99.90;;;;;;5073726;28;19997;-62
2023/04/16 03:35:44;;;;;;;;;;;11.20;99.90;;;;;;5073839;28;19985;-63
2023/04/16 03:38:10;;;;;;;;;;;11.20;99.90;;;;;;5073599;28;20541;-62
2023/04/16 03:40:36;;;;;;;;;;;11.20;99.90;;;;;;5073612;28;20016;-64
2023/04/16 03:43:02;;;;;;;;;;;11.30;99.90;;;;;;5073749;28;19989;-62
2023/04/16 03:45:27;;;;;;;;;;;11.30;99.90;;;;;;5073594;28;19992;-62
2023/04/16 03:47:53;;;;;;;;;;;11.40;99.90;;;;;;5073749;28;19993;-64
2023/04/16 03:50:18;;;;;;;;;;;11.30;99.90;;;;;;5073622;28;20467;-61
2023/04/16 03:52:45;;;;;;;;;;;11.00;99.90;;;;;;5073505;28;20443;-62
2023/04/16 03:55:11;;;;;;;;;;;10.90;99.90;;;;;;5073429;28;19993;-63
2023/04/16 03:57:37;;;;;;;;;;;11.00;99.90;;;;;;5073545;28;19985;-62
2023/04/16 04:00:03;;;;;;;;;;;11.00;99.90;;;;;;5073431;28;19985;-63
2023/04/16 04:02:28;;;;;;;;;;;10.90;99.90;;;;;;5073367;28;20063;-61
2023/04/16 04:04:54;;;;;;;;;;;10.80;99.90;;;;;;5073570;28;19992;-63
2023/04/16 04:07:19;;;;;;;;;;;10.90;99.90;;;;;;5073455;28;19985;-63
2023/04/16 04:09:45;;;;;;;;;;;11.00;99.90;;;;;;5073107;28;20030;-64
2023/04/16 04:12:10;;;;;;;;;;;11.10;99.90;;;;;;5073410;28;20458;-62
2023/04/16 04:14:38;;;;;;;;;;;11.20;99.90;;;;;;5073677;28;20386;-63
2023/04/16 04:17:04;;;;;;;;;;;11.20;99.90;;;;;;5073265;28;20037;-64
2023/04/16 04:19:30;;;;;;;;;;;11.30;99.90;;;;;;5073292;28;20035;-63
2023/04/16 04:21:55;;;;;;;;;;;11.20;99.90;;;;;;5073243;28;20013;-63
2023/04/16 04:24:21;;;;;;;;;;;11.00;99.90;;;;;;5073264;28;19996;-61
2023/04/16 04:26:46;;;;;;;;;;;10.90;99.90;;;;;;5076129;28;19985;-63
2023/04/16 04:29:12;;;;;;;;;;;10.80;99.90;;;;;;5077074;28;19993;-63
2023/04/16 04:31:38;;;;;;;;;;;10.80;99.90;;;;;;5076969;28;19992;-62
2023/04/16 04:34:03;;;;;;;;;;;10.80;99.90;;;;;;5076943;28;20029;-61
2023/04/16 04:36:29;;;;;;;;;;;11.00;99.90;;;;;;5076932;28;19989;-61
2023/04/16 04:38:55;;;;;;;;;;;11.10;99.90;;;;;;5076546;28;20112;-63
2023/04/16 04:41:20;;;;;;;;;;;11.20;99.90;;;;;;5076610;28;20104;-64
2023/04/16 04:43:46;;;;;;;;;;;11.30;99.90;;;;;;5076801;28;19986;-62
2023/04/16 04:46:11;;;;;;;;;;;11.40;99.90;;;;;;5077041;28;19996;-63
2023/04/16 04:48:37;;;;;;;;;;;11.40;99.90;;;;;;5076601;28;20443;-63
2023/04/16 04:51:03;;;;;;;;;;;11.50;99.90;;;;;;5076650;28;20359;-62
2023/04/16 04:53:28;;;;;;;;;;;11.50;99.90;;;;;;5076429;28;19996;-63
2023/04/16 04:55:54;;;;;;;;;;;11.50;99.90;;;;;;5076512;28;19991;-62
2023/04/16 04:58:20;;;;;;;;;;;11.40;99.90;;;;;;5076549;28;20422;-64
2023/04/16 05:00:45;;;;;;;;;;;11.30;99.90;;;;;;5076441;28;20378;-63
2023/04/16 05:03:11;;;;;;;;;;;11.30;99.90;;;;;;5076602;28;19989;-64
2023/04/16 05:05:40;;;;;;;;;;;11.30;99.90;;;;;;5076441;28;19985;-61
2023/04/16 05:08:06;;;;;;;;;;;11.40;99.90;;;;;;5076308;28;19985;-61
2023/04/16 05:10:31;;;;;;;;;;;11.50;99.90;;;;;;5076546;28;20130;-62
2023/04/16 05:12:57;;;;;;;;;;;11.60;99.90;;;;;;5076605;28;20576;-61
2023/04/16 05:15:22;;;;;;;;;;;11.60;99.90;;;;;;5076291;28;20417;-63
2023/04/16 05:17:48;;;;;;;;;;;11.70;99.90;;;;;;5076482;28;19995;-64
2023/04/16 05:20:13;;;;;;;;;;;11.60;99.90;;;;;;5076147;28;19997;-64
2023/04/16 05:22:39;;;;;;;;;;;11.70;99.90;;;;;;5076049;28;20017;-62
2023/04/16 05:25:04;;;;;;;;;;;11.80;99.90;;;;;;5076106;28;19991;-63
2023/04/16 05:27:30;;;;;;;;;;;11.90;99.90;;;;;;5075912;28;20486;-62
2023/04/16 05:29:56;;;;;;;;;;;11.90;99.90;;;;;;5075973;28;20036;-62
2023/04/16 05:32:21;;;;;;;;;;;11.90;99.90;;;;;;5075892;28;20017;-63
2023/04/16 05:34:47;;;;;;;;;;;11.90;99.90;;;;;;5075602;28;19989;-62
2023/04/16 05:37:13;;;;;;;;;;;11.90;99.90;;;;;;5075256;28;20017;-63
2023/04/16 05:39:38;;;;;;;;;;;12.00;99.90;;;;;;5076099;28;20481;-61
2023/04/16 05:42:04;;;;;;;;;;;12.10;99.90;;;;;;5075584;28;20493;-61
2023/04/16 05:44:30;;;;;;;;;;;12.10;99.90;;;;;;5075695;28;20477;-62
2023/04/16 05:46:55;;;;;;;;;;;12.20;99.90;;;;;;5075659;28;20408;-62
2023/04/16 05:49:21;;;;;;;;;;;12.20;99.90;;;;;;5075657;28;20123;-62
2023/04/16 05:51:47;;;;;;;;;;;12.30;99.90;;;;;;5075262;28;20455;-62
2023/04/16 05:54:12;;;;;;;;;;;12.30;99.90;;;;;;5075616;28;19989;-61
2023/04/16 05:56:38;;;;;;;;;;;12.20;99.90;;;;;;5075453;28;20028;-63
2023/04/16 05:59:03;;;;;;;;;;;12.10;99.90;;;;;;5075372;28;19993;-63
2023/04/16 06:01:29;;;;;;;;;;;12.20;99.90;;;;;;5075455;28;20060;-63
2023/04/16 06:03:54;;;;;;;;;;;12.20;99.90;;;;;;5075140;28;20435;-62
2023/04/16 06:06:20;;;;;;;;;;;12.10;99.90;;;;;;5075181;28;20497;-62
2023/04/16 06:08:45;;;;;;;;;;;12.20;99.90;;;;;;5075363;28;20088;-63
2023/04/16 06:11:11;;;;;;;;;;;12.30;99.90;;;;;;5075154;28;19986;-63
2023/04/16 06:13:37;;;;;;;;;;;12.40;99.90;;;;;;5075055;28;20084;-61
2023/04/16 06:16:03;;;;;;;;;;;12.50;99.90;;;;;;5075000;28;19985;-63
2023/04/16 06:18:28;;;;;;;;;;;12.50;99.90;;;;;;5075073;28;20075;-63
2023/04/16 06:20:54;;;;;;;;;;;12.60;99.90;;;;;;5074938;28;20463;-61
2023/04/16 06:23:20;;;;;;;;;;;12.70;99.90;;;;;;5074843;28;20503;-63
2023/04/16 06:25:45;;;;;;;;;;;12.70;99.90;;;;;;5074822;28;20034;-63
2023/04/16 06:28:11;;;;;;;;;;;12.70;99.90;;;;;;5074824;28;20439;-62
2023/04/16 06:30:37;;;;;;;;;;;12.70;99.90;;;;;;5074700;28;20459;-61
2023/04/16 06:33:03;;;;;;;;;;;12.80;99.90;;;;;;5074604;28;19993;-62
2023/04/16 06:35:29;;;;;;;;;;;12.90;99.90;;;;;;5075125;28;19993;-63
2023/04/16 06:37:55;;;;;;;;;;;13.20;99.90;;;;;;5074477;28;20495;-62
2023/04/16 06:40:20;;;;;;;;;;;13.30;99.90;;;;;;5074620;28;19985;-63
2023/04/16 06:42:46;;;;;;;;;;;13.30;99.90;;;;;;5074495;28;20010;-62
2023/04/16 06:45:13;;;;;;;;;;;13.20;99.90;;;;;;5074067;28;20355;-63
2023/04/16 06:47:39;;;;;;;;;;;13.30;99.90;;;;;;5073698;28;19994;-61
2023/04/16 06:50:05;;;;;;;;;;;13.30;99.90;;;;;;5074086;28;19985;-62
2023/04/16 06:52:30;;;;;;;;;;;13.40;99.90;;;;;;5074280;28;20431;-65
2023/04/16 06:54:56;;;;;;;;;;;13.40;99.90;;;;;;5074234;28;20000;-61
2023/04/16 06:57:22;;;;;;;;;;;13.40;99.90;;;;;;5074343;28;19992;-62
2023/04/16 06:59:47;;;;;;;;;;;13.40;99.90;;;;;;5074209;28;19986;-61
2023/04/16 07:02:13;;;;;;;;;;;13.30;99.90;;;;;;5073839;28;20010;-62
2023/04/16 07:04:38;;;;;;;;;;;13.30;99.90;;;;;;5074272;28;19989;-61
2023/04/16 07:07:04;;;;;;;;;;;13.30;99.90;;;;;;5074101;28;19986;-64
2023/04/16 07:09:29;;;;;;;;;;;13.30;99.90;;;;;;5073903;28;19993;-63
2023/04/16 07:11:55;;;;;;;;;;;13.30;99.90;;;;;;5074045;28;20052;-62
2023/04/16 07:14:21;;;;;;;;;;;13.30;99.90;;;;;;5074256;28;19989;-62
2023/04/16 07:16:46;;;;;;;;;;;13.20;99.90;;;;;;5073832;28;20043;-62
2023/04/16 07:19:12;;;;;;;;;;;13.30;99.90;;;;;;5073743;28;20347;-61
2023/04/16 07:21:37;;;;;;;;;;;13.30;99.90;;;;;;5073893;28;20051;-61
2023/04/16 07:24:03;;;;;;;;;;;13.40;99.90;;;;;;5074239;28;20042;-64
2023/04/16 07:26:29;;;;;;;;;;;13.40;99.90;;;;;;5073838;28;20043;-61
2023/04/16 07:28:55;;;;;;;;;;;13.50;99.90;;;;;;5074275;28;19993;-62
2023/04/16 07:31:20;;;;;;;;;;;13.50;99.90;;;;;;5073521;28;20481;-63
2023/04/16 07:33:46;;;;;;;;;;;13.20;99.90;;;;;;5073713;28;19985;-61
2023/04/16 07:36:11;;;;;;;;;;;13.00;99.90;;;;;;5073877;28;19985;-63
2023/04/16 07:38:37;;;;;;;;;;;13.00;99.90;;;;;;5073591;28;20391;-62
2023/04/16 07:41:02;;;;;;;;;;;13.00;99.90;;;;;;5073488;28;20067;-63
2023/04/16 07:43:28;;;;;;;;;;;13.30;99.90;;;;;;5073680;28;20095;-63
2023/04/16 07:45:54;;;;;;;;;;;13.60;99.90;;;;;;5073457;28;20439;-61
2023/04/16 07:48:20;;;;;;;;;;;13.80;99.90;;;;;;5073671;28;19992;-63
2023/04/16 07:50:45;;;;;;;;;;;14.00;99.90;;;;;;5073543;28;19989;-61
2023/04/16 07:53:11;;;;;;;;;;;14.20;99.90;;;;;;5073558;28;20355;-62
2023/04/16 07:55:37;;;;;;;;;;;14.30;99.90;;;;;;5073630;28;20130;-62
2023/04/16 07:58:02;;;;;;;;;;;14.40;99.90;;;;;;5073457;28;20371;-63
2023/04/16 08:00:28;;;;;;;;;;;14.50;99.90;;;;;;5075929;28;20453;-62
2023/04/16 08:02:54;;;;;;;;;;;14.60;99.90;;;;;;5077529;28;20104;-61
2023/04/16 08:05:19;;;;;;;;;;;14.50;99.90;;;;;;5077474;28;19991;-63
2023/04/16 08:07:45;;;;;;;;;;;14.50;99.90;;;;;;5077444;28;20001;-62
2023/04/16 08:10:10;;;;;;;;;;;14.70;99.90;;;;;;5077483;28;19989;-63
2023/04/16 08:12:36;;;;;;;;;;;14.70;99.90;;;;;;5077405;28;20031;-61
2023/04/16 08:15:02;;;;;;;;;;;14.80;99.90;;;;;;5077434;28;20020;-62
2023/04/16 08:17:28;;;;;;;;;;;14.90;99.90;;;;;;5077627;28;20413;-62
2023/04/16 08:19:54;;;;;;;;;;;14.90;99.90;;;;;;5077343;28;20490;-61
2023/04/16 08:22:20;;;;;;;;;;;15.00;99.90;;;;;;5077034;28;20017;-62
2023/04/16 08:24:45;;;;;;;;;;;15.10;99.90;;;;;;5077442;28;19985;-63
2023/04/16 08:27:11;;;;;;;;;;;15.10;99.90;;;;;;5077102;28;20038;-61
2023/04/16 08:29:36;;;;;;;;;;;15.40;99.90;;;;;;5076790;28;19997;-63
2023/04/16 08:32:02;;;;;;;;;;;15.50;99.90;;;;;;5077517;28;19989;-64
2023/04/16 08:34:27;;;;;;;;;;;15.60;99.50;;;;;;5077001;28;20455;-64
2023/04/16 08:36:53;;;;;;;;;;;15.70;99.10;;;;;;5076629;28;19985;-63
2023/04/16 08:39:19;;;;;;;;;;;15.80;99.10;;;;;;5076884;28;20082;-63
2023/04/16 08:41:45;;;;;;;;;;;15.90;98.90;;;;;;5076677;28;20124;-62
2023/04/16 08:44:19;;;;;;;;;;;15.90;97.60;;;;;;5076637;28;19989;-63
2023/04/16 08:46:45;;;;;;;;;;;16.30;98.20;;;;;;5076906;28;19991;-62
2023/04/16 08:49:14;;;;;;;;;;;16.50;98.40;;;;;;5076723;28;19988;-60
2023/04/16 08:51:42;;;;;;;;;;;16.80;99.90;;;;;;5076606;28;19985;-63
2023/04/16 08:54:08;;;;;;;;;;;16.90;98.20;;;;;;5076630;28;19986;-63
2023/04/16 08:56:37;;;;;;;;;;;17.30;97.30;;;;;;5076908;28;20012;-63
2023/04/16 08:59:06;;;;;;;;;;;18.00;94.20;;;;;;5076556;28;20032;-62
2023/04/16 09:01:32;;;;;;;;;;;18.40;81.80;;;;;;5076545;28;20009;-62
2023/04/16 09:04:01;;;;;;;;;;;19.10;75.30;;;;;;5076430;28;19990;-61
2023/04/16 09:06:27;;;;;;;;;;;19.60;76.50;;;;;;5076567;28;19986;-63
2023/04/16 09:08:53;;;;;;;;;;;20.50;73.10;;;;;;5076323;28;20012;-63
2023/04/16 09:11:19;;;;;;;;;;;21.00;76.30;;;;;;5075434;28;19997;-62
2023/04/16 09:13:45;;;;;;;;;;;21.60;64.70;;;;;;5076045;28;19985;-62
2023/04/16 09:16:11;;;;;;;;;;;21.20;66.20;;;;;;5076490;28;19989;-63
2023/04/16 09:18:37;;;;;;;;;;;21.00;63.30;;;;;;5074962;28;20037;-63
2023/04/16 09:21:03;;;;;;;;;;;21.20;57.80;;;;;;5076038;28;20017;-61
2023/04/16 09:23:29;;;;;;;;;;;21.20;59.90;;;;;;5076068;28;20037;-63
2023/04/16 09:25:55;;;;;;;;;;;21.50;57.60;;;;;;5076102;28;20033;-61
2023/04/16 09:28:39;;;;;;;;;;;21.70;59.40;;;;;;5075879;28;19990;-63
2023/04/16 09:31:09;;;;;;;;;;;22.20;61.10;;;;;;5076125;28;20394;-62
2023/04/16 09:33:35;;;;;;;;;;;22.40;59.20;;;;;;5076194;28;19997;-61
2023/04/16 09:36:00;;;;;;;;;;;23.00;54.80;;;;;;5075695;28;20367;-61
2023/04/16 09:38:44;;;;;;;;;;;23.20;52.20;;;;;;5075667;28;20074;-61
2023/04/16 09:41:09;;;;;;;;;;;23.30;56.30;;;;;;5075563;28;20017;-63
2023/04/16 09:43:35;;;;;;;;;;;23.60;54.30;;;;;;5075774;28;19990;-61
2023/04/16 09:46:03;;;;;;;;;;;23.80;51.60;;;;;;5075708;28;19992;-61
2023/04/16 09:48:29;;;;;;;;;;;23.40;51.80;;;;;;5075579;28;20008;-63
2023/04/16 09:50:55;;;;;;;;;;;22.80;50.00;;;;;;5075898;28;19989;-62
2023/04/16 09:53:25;;;;;;;;;;;22.40;52.00;;;;;;5075485;28;20493;-63
2023/04/16 09:55:51;;;;;;;;;;;22.40;53.50;;;;;;5075235;28;20008;-63
2023/04/16 09:58:17;;;;;;;;;;;22.30;52.90;;;;;;5075721;28;19985;-62
2023/04/16 10:00:43;;;;;;;;;;;22.20;51.90;;;;;;5075407;28;19985;-64
2023/04/16 10:03:09;;;;;;;;;;;22.10;52.80;;;;;;5075553;28;20013;-61
2023/04/16 10:05:35;;;;;;;;;;;22.10;52.20;;;;;;5075310;28;20351;-61
2023/04/16 10:08:01;;;;;;;;;;;21.90;50.80;;;;;;5075421;28;20039;-60
2023/04/16 10:10:27;;;;;;;;;;;21.50;51.70;;;;;;5075242;28;19989;-61
2023/04/16 10:12:54;;;;;;;;;;;21.40;55.30;;;;;;5075454;28;19989;-60
2023/04/16 10:15:20;;;;;;;;;;;21.30;51.90;;;;;;5075083;28;20042;-61
2023/04/16 10:17:45;;;;;;;;;;;20.90;53.10;;;;;;5075116;28;19985;-61
2023/04/16 10:20:11;;;;;;;;;;;20.70;54.30;;;;;;5074903;28;20028;-63
2023/04/16 10:22:37;;;;;;;;;;;20.80;55.40;;;;;;5074798;28;20059;-61
2023/04/16 10:25:03;;;;;;;;;;;20.50;52.10;;;;;;5075162;28;20034;-62
2023/04/16 10:27:28;;;;;;;;;;;20.30;52.00;;;;;;5074918;28;20088;-63
2023/04/16 10:29:54;;;;;;;;;;;20.40;54.40;;;;;;5074815;28;20440;-63
2023/04/16 10:32:20;;;;;;;;;;;20.50;52.60;;;;;;5074796;28;20007;-60
2023/04/16 10:34:46;;;;;;;;;;;20.50;52.30;;;;;;5074794;28;20055;-61
2023/04/16 10:37:12;;;;;;;;;;;20.20;51.80;;;;;;5074581;28;20064;-61
2023/04/16 10:39:37;;;;;;;;;;;19.90;53.30;;;;;;5074674;28;20070;-63
2023/04/16 10:42:10;;;;;;;;;;;19.80;53.60;;;;;;5074186;28;20039;-62
2023/04/16 10:44:36;;;;;;;;;;;19.80;53.50;;;;;;5074559;28;19992;-63
2023/04/16 10:47:01;;;;;;;;;;;19.90;55.80;;;;;;5074548;28;20351;-65
2023/04/16 10:49:27;;;;;;;;;;;19.70;54.60;;;;;;5073104;28;19989;-63
2023/04/16 10:51:56;;;;;;;;;;;19.70;55.80;;;;;;5074537;28;19993;-65
2023/04/16 10:54:26;;;;;;;;;;;19.80;55.80;;;;;;5074239;28;19991;-64
2023/04/16 10:56:52;;;;;;;;;;;19.90;55.20;;;;;;5074199;28;20443;-63
2023/04/16 10:59:19;;;;;;;;;;;20.00;54.30;;;;;;5074512;28;19993;-60
2023/04/16 11:01:45;;;;;;;;;;;20.00;56.10;;;;;;5074356;28;20022;-63
2023/04/16 11:04:20;;;;;;;;;;;19.80;56.40;;;;;;5074164;28;20064;-65
2023/04/16 11:07:18;;;;;;;;;;;19.70;54.40;;;;;;5074292;28;20035;-63
2023/04/16 11:09:47;;;;;;;;;;;19.70;55.60;;;;;;5073346;28;20043;-62
2023/04/16 11:12:19;;;;;;;;;;;19.70;56.50;;;;;;5074023;28;19986;-62
2023/04/16 11:14:50;;;;;;;;;;;19.60;57.60;;;;;;5074218;28;19989;-62
2023/04/16 11:17:16;;;;;;;;;;;19.40;60.20;;;;;;5074017;28;19985;-63
2023/04/16 11:19:42;;;;;;;;;;;19.40;60.30;;;;;;5074469;28;19990;-63
2023/04/16 11:22:07;;;;;;;;;;;19.30;61.10;;;;;;5074033;28;20013;-63
2023/04/16 11:24:33;;;;;;;;;;;19.30;62.10;;;;;;5073674;28;19992;-62
2023/04/16 11:26:59;;;;;;;;;;;19.10;61.40;;;;;;5073816;28;19993;-61
2023/04/16 11:29:24;;;;;;;;;;;19.00;61.70;;;;;;5074067;28;19989;-63
2023/04/16 11:31:53;;;;;;;;;;;18.90;62.90;;;;;;5073722;28;19990;-62
2023/04/16 11:34:19;;;;;;;;;;;18.70;64.00;;;;;;5073467;28;20459;-62
2023/04/16 11:36:46;;;;;;;;;;;18.50;64.40;;;;;;5073782;28;20021;-62
2023/04/16 11:39:12;;;;;;;;;;;18.40;65.20;;;;;;5073306;28;20027;-64
2023/04/16 11:41:43;;;;;;;;;;;18.40;67.00;;;;;;5073566;28;20540;-62
2023/04/16 11:44:22;;;;;;;;;;;18.30;67.30;;;;;;5073581;28;19989;-61
2023/04/16 11:46:48;;;;;;;;;;;18.10;68.80;;;;;;5073915;28;20134;-61
2023/04/16 11:49:16;;;;;;;;;;;18.00;69.10;;;;;;5073709;28;20462;-62
2023/04/16 11:51:45;;;;;;;;;;;18.00;70.50;;;;;;5084367;28;19992;-62
2023/04/16 11:54:18;;;;;;;;;;;17.90;69.00;;;;;;5093553;28;19989;-62
2023/04/16 11:56:45;;;;;;;;;;;17.90;68.90;;;;;;5093589;28;20041;-64
2023/04/16 11:59:11;;;;;;;;;;;17.90;71.30;;;;;;5093651;28;20420;-64
2023/04/16 12:01:38;;;;;;;;;;;18.00;69.20;;;;;;5092796;28;20425;-62
2023/04/16 12:04:04;;;;;;;;;;;18.00;70.20;;;;;;5093957;28;20083;-62
2023/04/16 12:06:32;;;;;;;;;;;18.00;69.90;;;;;;5093564;28;20423;-62
2023/04/16 12:08:58;;;;;;;;;;;18.00;72.80;;;;;;5093714;28;20103;-65
2023/04/16 12:11:40;;;;;;;;;;;18.00;72.30;;;;;;5093849;28;20463;-62
2023/04/16 12:14:06;;;;;;;;;;;17.90;75.60;;;;;;5093703;28;20012;-66
2023/04/16 12:16:31;;;;;;;;;;;17.70;76.60;;;;;;5093846;28;20347;-65
2023/04/16 12:18:58;;;;;;;;;;;17.70;77.70;;;;;;5093436;28;19985;-62
2023/04/16 12:21:23;;;;;;;;;;;17.70;78.00;;;;;;5093425;28;20062;-64
2023/04/16 12:23:52;;;;;;;;;;;17.60;76.20;;;;;;5093566;28;19989;-61
2023/04/16 12:26:17;;;;;;;;;;;17.70;78.40;;;;;;5093389;28;19997;-61
2023/04/16 12:28:43;;;;;;;;;;;17.70;80.40;;;;;;5093549;28;20037;-60
2023/04/16 12:31:09;;;;;;;;;;;17.70;79.60;;;;;;5093475;28;20040;-62
2023/04/16 12:33:35;;;;;;;;;;;17.60;81.30;;;;;;5093458;28;19992;-63
2023/04/16 12:36:15;;;;;;;;;;;17.50;83.20;;;;;;5093301;28;19985;-62
2023/04/16 12:38:40;;;;;;;;;;;17.40;82.00;;;;;;5093174;28;20021;-62
2023/04/16 12:41:06;;;;;;;;;;;17.40;83.40;;;;;;5093387;28;20383;-63
2023/04/16 12:43:31;;;;;;;;;;;17.30;86.80;;;;;;5093339;28;20395;-64
2023/04/16 12:45:57;;;;;;;;;;;17.30;86.10;;;;;;5093322;28;19985;-63
2023/04/16 12:48:22;;;;;;;;;;;17.30;85.10;;;;;;5097016;28;19985;-60
2023/04/16 12:50:48;;;;;;;;;;;17.30;86.10;;;;;;5096980;28;19993;-63
2023/04/16 12:53:14;;;;;;;;;;;17.50;82.50;;;;;;5096980;28;20064;-62
2023/04/16 12:55:39;;;;;;;;;;;17.40;83.60;;;;;;5096941;28;19985;-63
2023/04/16 12:58:05;;;;;;;;;;;17.50;88.20;;;;;;5096867;28;19992;-61
2023/04/16 13:00:31;;;;;;;;;;;17.60;81.30;;;;;;5097038;28;20041;-64
2023/04/16 13:02:57;;;;;;;;;;;17.70;81.80;;;;;;5097095;28;20017;-61
2023/04/16 13:05:22;;;;;;;;;;;17.70;77.30;;;;;;5096445;28;20019;-61
2023/04/16 13:07:48;;;;;;;;;;;17.80;83.00;;;;;;5096665;28;20034;-62
2023/04/16 13:10:13;;;;;;;;;;;17.90;80.20;;;;;;5096718;28;19992;-61
2023/04/16 13:12:39;;;;;;;;;;;17.90;76.50;;;;;;5096495;28;19993;-61
2023/04/16 13:15:05;;;;;;;;;;;18.00;79.00;;;;;;5096860;28;20042;-62
2023/04/16 13:17:31;;;;;;;;;;;17.90;72.70;;;;;;5096607;28;20377;-61
2023/04/16 13:19:56;;;;;;;;;;;17.70;76.40;;;;;;5096572;28;20041;-63
2023/04/16 13:22:22;;;;;;;;;;;17.60;77.40;;;;;;5096311;28;20479;-63
2023/04/16 13:24:48;;;;;;;;;;;17.50;77.90;;;;;;5096695;28;19992;-60
2023/04/16 13:27:15;;;;;;;;;;;17.40;80.50;;;;;;5096410;28;20038;-61
2023/04/16 13:29:41;;;;;;;;;;;17.40;80.80;;;;;;5096168;28;19984;-61
2023/04/16 13:32:06;;;;;;;;;;;17.60;78.40;;;;;;5096257;28;20075;-63
2023/04/16 13:34:32;;;;;;;;;;;17.60;78.30;;;;;;5095875;28;19993;-63
2023/04/16 13:36:57;;;;;;;;;;;17.70;78.30;;;;;;5095827;28;19985;-63
2023/04/16 13:39:24;;;;;;;;;;;17.70;80.60;;;;;;5094826;28;19988;-62
2023/04/16 13:41:50;;;;;;;;;;;17.70;80.10;;;;;;5096175;28;20060;-60
2023/04/16 13:44:15;;;;;;;;;;;17.60;86.10;;;;;;5095925;28;19985;-62
2023/04/16 13:46:46;;;;;;;;;;;17.60;88.20;;;;;;5095892;28;19993;-63
2023/04/16 13:49:11;;;;;;;;;;;17.60;90.50;;;;;;5095772;28;19989;-62
2023/04/16 13:51:37;;;;;;;;;;;17.50;92.80;;;;;;5096087;28;20324;-62
2023/04/16 13:54:03;;;;;;;;;;;17.20;95.20;;;;;;5095850;28;19985;-62
2023/04/16 13:56:28;;;;;;;;;;;17.00;95.20;;;;;;5095739;28;19989;-62
2023/04/16 13:58:54;;;;;;;;;;;16.80;96.20;;;;;;5095229;28;19985;-61
2023/04/16 14:01:19;;;;;;;;;;;16.80;96.90;;;;;;5095537;28;20371;-62
2023/04/16 14:03:45;;;;;;;;;;;16.80;99.10;;;;;;5095604;28;19985;-63
2023/04/16 14:06:11;;;;;;;;;;;16.70;99.00;;;;;;5095541;28;20553;-61
2023/04/16 14:08:37;;;;;;;;;;;16.80;99.60;;;;;;5095413;28;19996;-63
2023/04/16 14:11:04;;;;;;;;;;;16.80;97.00;;;;;;5095662;28;19989;-63